Time;durP1;ratioP1;P1;durP2;ratioP2;P2;SDS_P1;SDS_P2;PMS_P1;PMS_P2;Temp;Humidity;BMP_temperature;BMP_pressure;BME280_temperature;BME280_humidity;BME280_pressure;Samples;Min_cycle;Max_cycle;Signal;HPM_P1;HPM_P2
2021/05/24 00:01:40;;;;;;;;;;;18.80;45.30;;;;;;491518;240;2176;-73
2021/05/24 00:03:41;;;;;;;;;;;18.80;45.30;;;;;;491517;240;927;-73
2021/05/24 00:05:42;;;;;;;;;;;18.90;45.30;;;;;;491480;240;1048;-73
2021/05/24 00:07:43;;;;;;;;;;;18.90;45.20;;;;;;491488;240;1037;-73
2021/05/24 00:09:45;;;;;;;;;;;18.90;45.20;;;;;;491571;240;1005;-73
2021/05/24 00:11:50;;;;;;;;;;;18.80;45.30;;;;;;491607;240;1022;-72
2021/05/24 00:13:54;;;;;;;;;;;18.80;45.30;;;;;;491613;240;1360;-72
2021/05/24 00:15:53;;;;;;;;;;;18.80;45.30;;;;;;491549;240;1370;-73
2021/05/24 00:17:54;;;;;;;;;;;18.80;45.30;;;;;;491589;240;1094;-73
2021/05/24 00:19:55;;;;;;;;;;;18.80;45.30;;;;;;491635;240;2191;-73
2021/05/24 00:21:57;;;;;;;;;;;18.80;45.40;;;;;;491549;240;1155;-73
2021/05/24 00:23:58;;;;;;;;;;;18.80;45.50;;;;;;491692;240;1006;-73
2021/05/24 00:26:01;;;;;;;;;;;18.80;45.40;;;;;;491560;240;1226;-72
2021/05/24 00:28:01;;;;;;;;;;;18.80;45.40;;;;;;491540;240;1346;-73
2021/05/24 00:30:02;;;;;;;;;;;18.80;45.40;;;;;;491575;240;1168;-73
2021/05/24 00:32:03;;;;;;;;;;;18.80;45.40;;;;;;491503;240;1138;-73
2021/05/24 00:34:04;;;;;;;;;;;18.80;45.40;;;;;;491457;240;988;-72
2021/05/24 00:36:06;;;;;;;;;;;18.80;45.30;;;;;;491540;240;1241;-73
2021/05/24 00:38:07;;;;;;;;;;;18.80;45.30;;;;;;491546;240;1118;-73
2021/05/24 00:40:08;;;;;;;;;;;18.80;45.30;;;;;;491668;240;2180;-73
2021/05/24 00:42:10;;;;;;;;;;;18.80;45.30;;;;;;491612;240;1333;-73
2021/05/24 00:44:11;;;;;;;;;;;18.80;45.20;;;;;;491613;240;1336;-73
2021/05/24 00:46:12;;;;;;;;;;;18.80;45.20;;;;;;491627;240;1294;-73
2021/05/24 00:48:14;;;;;;;;;;;18.80;45.30;;;;;;491596;240;1029;-73
2021/05/24 00:50:15;;;;;;;;;;;18.90;45.20;;;;;;491600;240;1454;-73
2021/05/24 00:52:16;;;;;;;;;;;18.90;45.20;;;;;;491543;240;1050;-73
2021/05/24 00:54:17;;;;;;;;;;;18.90;45.10;;;;;;491524;240;1054;-73
2021/05/24 00:56:19;;;;;;;;;;;18.90;45.10;;;;;;491494;240;981;-73
2021/05/24 00:58:20;;;;;;;;;;;18.90;45.10;;;;;;491504;240;1057;-73
2021/05/24 01:00:21;;;;;;;;;;;18.90;45.10;;;;;;491463;240;2191;-73
2021/05/24 01:02:23;;;;;;;;;;;18.90;45.10;;;;;;491514;240;961;-73
2021/05/24 01:04:24;;;;;;;;;;;18.80;45.10;;;;;;491559;240;1021;-72
2021/05/24 01:06:25;;;;;;;;;;;18.90;45.20;;;;;;491574;240;1077;-73
2021/05/24 01:08:26;;;;;;;;;;;18.90;45.10;;;;;;491634;240;1059;-73
2021/05/24 01:10:28;;;;;;;;;;;18.90;45.10;;;;;;491570;240;1060;-73
2021/05/24 01:12:29;;;;;;;;;;;18.90;45.10;;;;;;491586;240;1021;-72
2021/05/24 01:14:30;;;;;;;;;;;18.90;45.10;;;;;;491680;240;1090;-73
2021/05/24 01:16:32;;;;;;;;;;;18.80;45.00;;;;;;491578;240;1132;-73
2021/05/24 01:18:33;;;;;;;;;;;18.90;45.20;;;;;;491506;240;956;-73
2021/05/24 01:20:34;;;;;;;;;;;18.80;45.10;;;;;;491436;240;2191;-73
2021/05/24 01:22:37;;;;;;;;;;;18.80;45.20;;;;;;491459;240;1094;-73
2021/05/24 01:24:37;;;;;;;;;;;18.80;45.20;;;;;;491695;240;1424;-73
2021/05/24 01:26:38;;;;;;;;;;;18.80;45.20;;;;;;491499;240;1166;-73
2021/05/24 01:28:39;;;;;;;;;;;18.80;45.20;;;;;;491445;240;1093;-73
2021/05/24 01:30:41;;;;;;;;;;;18.80;45.20;;;;;;491573;240;1180;-73
2021/05/24 01:32:42;;;;;;;;;;;18.80;45.20;;;;;;491488;240;1106;-73
2021/05/24 01:34:43;;;;;;;;;;;18.80;45.30;;;;;;491648;240;990;-73
2021/05/24 01:36:44;;;;;;;;;;;18.70;45.20;;;;;;491699;240;1029;-73
2021/05/24 01:38:46;;;;;;;;;;;18.80;45.30;;;;;;491567;240;967;-73
2021/05/24 01:40:47;;;;;;;;;;;18.70;45.30;;;;;;491679;240;2136;-73
2021/05/24 01:42:48;;;;;;;;;;;18.70;45.20;;;;;;491551;240;1053;-73
2021/05/24 01:44:50;;;;;;;;;;;18.80;45.20;;;;;;491580;240;992;-73
2021/05/24 01:46:51;;;;;;;;;;;18.80;45.20;;;;;;491531;240;1163;-73
2021/05/24 01:48:53;;;;;;;;;;;18.80;45.20;;;;;;491533;240;1088;-73
2021/05/24 01:50:54;;;;;;;;;;;18.80;45.20;;;;;;491462;240;1024;-73
2021/05/24 01:52:55;;;;;;;;;;;18.80;45.20;;;;;;491395;240;1119;-73
2021/05/24 01:54:56;;;;;;;;;;;18.80;45.20;;;;;;491498;240;1203;-73
2021/05/24 01:56:58;;;;;;;;;;;18.80;45.10;;;;;;491495;240;1117;-73
2021/05/24 01:58:59;;;;;;;;;;;18.80;45.10;;;;;;491619;240;1040;-73
2021/05/24 02:01:00;;;;;;;;;;;18.80;45.10;;;;;;491563;240;2152;-73
2021/05/24 02:03:02;;;;;;;;;;;18.80;45.10;;;;;;491550;240;1059;-72
2021/05/24 02:05:03;;;;;;;;;;;18.80;45.00;;;;;;491564;240;978;-73
2021/05/24 02:07:04;;;;;;;;;;;18.80;45.00;;;;;;491577;240;1108;-73
2021/05/24 02:09:05;;;;;;;;;;;18.80;44.90;;;;;;491547;240;1104;-73
2021/05/24 02:11:07;;;;;;;;;;;18.80;44.80;;;;;;491556;240;1143;-73
2021/05/24 02:13:08;;;;;;;;;;;18.80;44.80;;;;;;491488;240;1107;-73
2021/05/24 02:15:09;;;;;;;;;;;18.80;44.70;;;;;;491532;240;1316;-73
2021/05/24 02:17:11;;;;;;;;;;;18.80;44.80;;;;;;491483;240;1199;-73
2021/05/24 02:19:12;;;;;;;;;;;18.80;44.80;;;;;;491437;240;1182;-73
2021/05/24 02:21:13;;;;;;;;;;;18.80;44.80;;;;;;491445;240;2179;-73
2021/05/24 02:23:14;;;;;;;;;;;18.80;44.80;;;;;;491556;240;1039;-73
2021/05/24 02:25:16;;;;;;;;;;;18.80;44.80;;;;;;491738;240;1149;-73
2021/05/24 02:27:17;;;;;;;;;;;18.80;44.80;;;;;;491604;240;1039;-73
2021/05/24 02:29:18;;;;;;;;;;;18.80;44.70;;;;;;491548;240;1228;-73
2021/05/24 02:31:20;;;;;;;;;;;18.80;44.80;;;;;;491571;240;1300;-73
2021/05/24 02:33:21;;;;;;;;;;;18.80;44.70;;;;;;491477;240;1057;-73
2021/05/24 02:35:22;;;;;;;;;;;18.80;44.70;;;;;;491567;240;970;-73
2021/05/24 02:37:24;;;;;;;;;;;18.80;44.70;;;;;;491544;240;1115;-73
2021/05/24 02:39:25;;;;;;;;;;;18.80;44.70;;;;;;491402;240;1015;-73
2021/05/24 02:41:26;;;;;;;;;;;18.80;44.80;;;;;;491489;240;2188;-73
2021/05/24 02:43:27;;;;;;;;;;;18.80;44.80;;;;;;491511;240;989;-73
2021/05/24 02:45:29;;;;;;;;;;;18.80;44.80;;;;;;491518;240;1087;-73
2021/05/24 02:47:30;;;;;;;;;;;18.80;44.70;;;;;;491461;240;1190;-73
2021/05/24 02:49:31;;;;;;;;;;;18.80;44.70;;;;;;491506;240;992;-72
2021/05/24 02:51:32;;;;;;;;;;;18.80;44.60;;;;;;491510;240;1101;-73
2021/05/24 02:53:34;;;;;;;;;;;18.80;44.60;;;;;;491590;240;992;-73
2021/05/24 02:55:36;;;;;;;;;;;18.80;44.60;;;;;;491696;240;1405;-73
2021/05/24 02:57:36;;;;;;;;;;;18.80;44.60;;;;;;491506;240;1267;-73
2021/05/24 02:59:38;;;;;;;;;;;18.80;44.60;;;;;;491542;240;1186;-73
2021/05/24 03:01:39;;;;;;;;;;;18.80;44.60;;;;;;491514;240;2149;-73
2021/05/24 03:03:41;;;;;;;;;;;18.80;44.70;;;;;;491570;240;1267;-73
2021/05/24 03:05:42;;;;;;;;;;;18.80;44.70;;;;;;491458;240;1373;-73
2021/05/24 03:07:43;;;;;;;;;;;18.80;44.60;;;;;;491428;240;1070;-73
2021/05/24 03:09:44;;;;;;;;;;;18.80;44.50;;;;;;491506;240;1094;-73
2021/05/24 03:11:46;;;;;;;;;;;18.90;44.60;;;;;;491503;240;1161;-73
2021/05/24 03:13:47;;;;;;;;;;;18.90;44.50;;;;;;491513;240;1049;-73
2021/05/24 03:15:48;;;;;;;;;;;18.90;44.60;;;;;;491563;240;1026;-72
2021/05/24 03:17:49;;;;;;;;;;;18.90;44.50;;;;;;491580;240;1126;-73
2021/05/24 03:19:51;;;;;;;;;;;18.80;44.40;;;;;;491589;240;951;-73
2021/05/24 03:21:52;;;;;;;;;;;18.90;44.50;;;;;;491530;240;2180;-73
2021/05/24 03:23:53;;;;;;;;;;;18.90;44.50;;;;;;491628;240;1042;-73
2021/05/24 03:25:55;;;;;;;;;;;18.80;44.40;;;;;;491597;240;1225;-73
2021/05/24 03:27:56;;;;;;;;;;;18.80;44.50;;;;;;491593;240;1147;-73
2021/05/24 03:29:57;;;;;;;;;;;18.80;44.50;;;;;;491576;240;1099;-73
2021/05/24 03:31:58;;;;;;;;;;;18.80;44.50;;;;;;491491;240;1245;-73
2021/05/24 03:34:00;;;;;;;;;;;18.90;44.50;;;;;;491440;240;1034;-73
2021/05/24 03:36:01;;;;;;;;;;;18.90;44.50;;;;;;491446;240;968;-73
2021/05/24 03:38:02;;;;;;;;;;;18.90;44.50;;;;;;491493;240;1177;-73
2021/05/24 03:40:03;;;;;;;;;;;18.80;44.50;;;;;;491519;240;1021;-73
2021/05/24 03:42:05;;;;;;;;;;;18.80;44.50;;;;;;491492;240;2184;-73
2021/05/24 03:44:06;;;;;;;;;;;18.80;44.40;;;;;;491635;240;1100;-73
2021/05/24 03:46:07;;;;;;;;;;;18.90;44.50;;;;;;491620;240;998;-73
2021/05/24 03:48:09;;;;;;;;;;;18.90;44.40;;;;;;491612;240;1174;-73
2021/05/24 03:50:10;;;;;;;;;;;18.90;44.40;;;;;;491627;240;1180;-72
2021/05/24 03:52:11;;;;;;;;;;;18.80;44.40;;;;;;491470;240;963;-73
2021/05/24 03:54:12;;;;;;;;;;;18.90;44.40;;;;;;491517;240;1119;-73
2021/05/24 03:56:14;;;;;;;;;;;18.80;44.40;;;;;;491519;240;1177;-73
2021/05/24 03:58:15;;;;;;;;;;;18.80;44.50;;;;;;491495;240;1030;-73
2021/05/24 04:00:16;;;;;;;;;;;18.80;44.50;;;;;;491518;240;1054;-73
2021/05/24 04:02:18;;;;;;;;;;;18.80;44.50;;;;;;491458;240;2187;-73
2021/05/24 04:04:19;;;;;;;;;;;18.80;44.50;;;;;;491454;240;1093;-73
2021/05/24 04:06:20;;;;;;;;;;;18.80;44.40;;;;;;491496;240;1239;-73
2021/05/24 04:08:21;;;;;;;;;;;18.80;44.40;;;;;;491589;240;1044;-73
2021/05/24 04:10:25;;;;;;;;;;;18.80;44.40;;;;;;491577;240;1075;-73
2021/05/24 04:12:24;;;;;;;;;;;18.80;44.40;;;;;;491604;240;1345;-73
2021/05/24 04:14:25;;;;;;;;;;;18.80;44.40;;;;;;491572;240;988;-73
2021/05/24 04:16:27;;;;;;;;;;;18.90;44.40;;;;;;491587;240;992;-72
2021/05/24 04:18:30;;;;;;;;;;;18.90;44.40;;;;;;491564;240;1199;-73
2021/05/24 04:20:30;;;;;;;;;;;18.80;44.40;;;;;;491586;240;1422;-73
2021/05/24 04:22:30;;;;;;;;;;;18.80;44.30;;;;;;491556;240;2157;-73
2021/05/24 04:24:32;;;;;;;;;;;18.80;44.40;;;;;;491551;240;986;-73
2021/05/24 04:26:33;;;;;;;;;;;18.80;44.30;;;;;;491443;240;1084;-73
2021/05/24 04:28:34;;;;;;;;;;;18.80;44.30;;;;;;491505;240;1051;-73
2021/05/24 04:30:36;;;;;;;;;;;18.80;44.30;;;;;;491468;240;1111;-73
2021/05/24 04:32:37;;;;;;;;;;;18.80;44.30;;;;;;491402;240;1182;-73
2021/05/24 04:34:38;;;;;;;;;;;18.80;44.30;;;;;;491565;240;962;-73
2021/05/24 04:36:39;;;;;;;;;;;18.80;44.30;;;;;;491601;240;1127;-73
2021/05/24 04:38:41;;;;;;;;;;;18.80;44.30;;;;;;491614;240;1129;-73
2021/05/24 04:40:42;;;;;;;;;;;18.80;44.30;;;;;;491609;240;1087;-73
2021/05/24 04:42:45;;;;;;;;;;;18.90;44.30;;;;;;491652;240;2140;-73
2021/05/24 04:44:45;;;;;;;;;;;18.80;44.30;;;;;;491597;240;1319;-73
2021/05/24 04:46:46;;;;;;;;;;;18.80;44.20;;;;;;491627;240;1208;-73
2021/05/24 04:48:47;;;;;;;;;;;18.80;44.30;;;;;;491594;240;1189;-73
2021/05/24 04:50:48;;;;;;;;;;;18.80;44.20;;;;;;491526;240;970;-73
2021/05/24 04:52:50;;;;;;;;;;;18.80;44.20;;;;;;491501;240;968;-73
2021/05/24 04:54:51;;;;;;;;;;;18.90;44.20;;;;;;491510;240;1082;-73
2021/05/24 04:56:52;;;;;;;;;;;18.90;44.20;;;;;;491440;240;1051;-73
2021/05/24 04:58:54;;;;;;;;;;;18.80;44.20;;;;;;491519;240;1073;-73
2021/05/24 05:00:57;;;;;;;;;;;18.80;44.20;;;;;;491505;240;1067;-73
2021/05/24 05:02:57;;;;;;;;;;;18.80;44.20;;;;;;491504;240;2146;-73
2021/05/24 05:04:58;;;;;;;;;;;18.80;44.20;;;;;;491555;240;951;-73
2021/05/24 05:06:59;;;;;;;;;;;18.80;44.30;;;;;;491515;240;1134;-73
2021/05/24 05:09:00;;;;;;;;;;;18.80;44.30;;;;;;491660;240;1271;-73
2021/05/24 05:11:02;;;;;;;;;;;18.80;44.30;;;;;;491601;240;1041;-73
2021/05/24 05:13:03;;;;;;;;;;;18.80;44.30;;;;;;491631;240;1026;-73
2021/05/24 05:15:04;;;;;;;;;;;18.80;44.20;;;;;;491519;240;1023;-73
2021/05/24 05:17:05;;;;;;;;;;;18.80;44.20;;;;;;491524;240;1261;-73
2021/05/24 05:19:07;;;;;;;;;;;18.80;44.30;;;;;;491519;240;1276;-73
2021/05/24 05:21:08;;;;;;;;;;;18.80;44.30;;;;;;491488;240;1179;-73
2021/05/24 05:23:09;;;;;;;;;;;18.80;44.30;;;;;;491555;240;2126;-73
2021/05/24 05:25:11;;;;;;;;;;;18.80;44.30;;;;;;491528;240;1217;-73
2021/05/24 05:27:12;;;;;;;;;;;18.80;44.40;;;;;;491495;240;1182;-73
2021/05/24 05:29:13;;;;;;;;;;;18.80;44.50;;;;;;491499;240;1097;-73
2021/05/24 05:31:14;;;;;;;;;;;18.80;44.50;;;;;;491617;240;1081;-73
2021/05/24 05:33:16;;;;;;;;;;;18.80;44.40;;;;;;491595;240;1230;-73
2021/05/24 05:35:19;;;;;;;;;;;18.90;44.40;;;;;;491631;240;1046;-73
2021/05/24 05:37:20;;;;;;;;;;;18.90;44.40;;;;;;491561;240;1418;-73
2021/05/24 05:39:20;;;;;;;;;;;18.90;44.30;;;;;;491511;240;1316;-73
2021/05/24 05:41:21;;;;;;;;;;;18.90;44.30;;;;;;491592;240;1083;-73
2021/05/24 05:43:22;;;;;;;;;;;18.80;44.30;;;;;;491551;240;2196;-73
2021/05/24 05:45:23;;;;;;;;;;;18.90;44.40;;;;;;491491;240;1062;-73
2021/05/24 05:47:25;;;;;;;;;;;18.90;44.30;;;;;;491466;240;1313;-73
2021/05/24 05:49:26;;;;;;;;;;;18.90;44.30;;;;;;491498;240;1192;-73
2021/05/24 05:51:28;;;;;;;;;;;18.90;44.30;;;;;;491533;240;1036;-73
2021/05/24 05:53:29;;;;;;;;;;;18.90;44.30;;;;;;491453;240;993;-73
2021/05/24 05:55:30;;;;;;;;;;;18.90;44.30;;;;;;491511;240;1012;-73
2021/05/24 05:57:31;;;;;;;;;;;18.90;44.40;;;;;;491546;240;1133;-73
2021/05/24 05:59:32;;;;;;;;;;;18.80;44.40;;;;;;491557;240;1148;-73
2021/05/24 06:01:34;;;;;;;;;;;18.80;44.50;;;;;;491472;240;1125;-73
2021/05/24 06:03:35;;;;;;;;;;;18.80;44.50;;;;;;491464;240;2195;-73
2021/05/24 06:05:37;;;;;;;;;;;18.80;44.60;;;;;;491542;240;1077;-73
2021/05/24 06:07:38;;;;;;;;;;;18.90;44.60;;;;;;491545;240;1064;-73
2021/05/24 06:09:39;;;;;;;;;;;18.90;44.60;;;;;;491532;240;1184;-73
2021/05/24 06:11:40;;;;;;;;;;;18.90;44.60;;;;;;491462;240;1249;-73
2021/05/24 06:13:42;;;;;;;;;;;18.90;44.60;;;;;;491405;240;972;-73
2021/05/24 06:15:43;;;;;;;;;;;18.90;44.60;;;;;;491467;240;1089;-73
2021/05/24 06:17:45;;;;;;;;;;;18.90;44.70;;;;;;491501;240;1101;-73
2021/05/24 06:19:46;;;;;;;;;;;18.90;44.80;;;;;;491495;240;1174;-73
2021/05/24 06:21:47;;;;;;;;;;;18.90;44.70;;;;;;491542;240;1109;-73
2021/05/24 06:23:49;;;;;;;;;;;18.90;44.70;;;;;;491578;240;2172;-73
2021/05/24 06:25:50;;;;;;;;;;;18.90;44.80;;;;;;491666;240;1129;-73
2021/05/24 06:27:51;;;;;;;;;;;18.90;44.90;;;;;;491512;240;1194;-73
2021/05/24 06:29:52;;;;;;;;;;;18.90;45.00;;;;;;491558;240;1049;-73
2021/05/24 06:31:54;;;;;;;;;;;18.90;45.00;;;;;;491562;240;1100;-73
2021/05/24 06:33:55;;;;;;;;;;;18.90;45.00;;;;;;491523;240;1242;-73
2021/05/24 06:35:56;;;;;;;;;;;18.90;45.00;;;;;;491604;240;1008;-73
2021/05/24 06:37:57;;;;;;;;;;;18.90;44.90;;;;;;491517;240;1027;-73
2021/05/24 06:39:59;;;;;;;;;;;18.90;44.90;;;;;;491488;240;1072;-73
2021/05/24 06:42:00;;;;;;;;;;;18.90;45.00;;;;;;491440;240;2180;-73
2021/05/24 06:44:02;;;;;;;;;;;18.90;45.00;;;;;;491498;240;999;-73
2021/05/24 06:46:03;;;;;;;;;;;18.90;45.10;;;;;;491514;240;1106;-73
2021/05/24 06:48:04;;;;;;;;;;;18.90;45.10;;;;;;491478;240;1025;-73
2021/05/24 06:50:06;;;;;;;;;;;18.90;45.10;;;;;;491509;240;1220;-73
2021/05/24 06:52:07;;;;;;;;;;;18.90;45.00;;;;;;491510;240;1146;-73
2021/05/24 06:54:08;;;;;;;;;;;18.90;45.10;;;;;;491580;240;951;-72
2021/05/24 06:56:09;;;;;;;;;;;18.90;45.10;;;;;;491552;240;1066;-73
2021/05/24 06:58:11;;;;;;;;;;;18.90;45.20;;;;;;491642;240;1083;-73
2021/05/24 07:00:12;;;;;;;;;;;18.90;45.20;;;;;;491488;240;1091;-73
2021/05/24 07:02:15;;;;;;;;;;;18.90;45.30;;;;;;491518;240;2196;-73
2021/05/24 07:04:15;;;;;;;;;;;18.90;45.30;;;;;;491493;240;1528;-73
2021/05/24 07:06:17;;;;;;;;;;;18.90;45.20;;;;;;491520;240;1039;-73
2021/05/24 07:08:18;;;;;;;;;;;18.90;45.30;;;;;;491495;240;1150;-73
2021/05/24 07:10:19;;;;;;;;;;;18.90;45.30;;;;;;491472;240;1100;-73
2021/05/24 07:12:20;;;;;;;;;;;18.90;45.40;;;;;;491508;240;1132;-73
2021/05/24 07:14:22;;;;;;;;;;;18.90;45.50;;;;;;491571;240;1060;-73
2021/05/24 07:16:23;;;;;;;;;;;18.90;45.50;;;;;;491616;240;1222;-73
2021/05/24 07:18:24;;;;;;;;;;;18.90;45.50;;;;;;491625;240;1057;-73
2021/05/24 07:20:26;;;;;;;;;;;18.90;45.50;;;;;;491633;240;1178;-73
2021/05/24 07:22:27;;;;;;;;;;;18.90;45.60;;;;;;491559;240;2391;-73
2021/05/24 07:24:28;;;;;;;;;;;18.90;45.70;;;;;;491616;240;1051;-73
2021/05/24 07:26:29;;;;;;;;;;;18.90;45.70;;;;;;491581;240;1225;-73
2021/05/24 07:28:31;;;;;;;;;;;18.90;45.80;;;;;;491529;240;1070;-73
2021/05/24 07:30:32;;;;;;;;;;;18.90;45.80;;;;;;491557;240;949;-73
2021/05/24 07:32:33;;;;;;;;;;;18.90;45.80;;;;;;491407;240;1240;-73
2021/05/24 07:34:35;;;;;;;;;;;18.90;46.00;;;;;;491455;240;1168;-73
2021/05/24 07:36:36;;;;;;;;;;;18.90;45.90;;;;;;491443;240;1050;-72
2021/05/24 07:38:37;;;;;;;;;;;18.90;46.00;;;;;;491399;240;1227;-73
2021/05/24 07:40:38;;;;;;;;;;;18.90;46.00;;;;;;491457;240;999;-73
2021/05/24 07:42:41;;;;;;;;;;;18.90;46.10;;;;;;491606;240;2191;-73
2021/05/24 07:44:41;;;;;;;;;;;18.90;46.20;;;;;;491546;240;1436;-73
2021/05/24 07:46:42;;;;;;;;;;;19.00;46.20;;;;;;491603;240;1077;-73
2021/05/24 07:48:43;;;;;;;;;;;18.90;46.10;;;;;;491608;240;1068;-73
2021/05/24 07:50:45;;;;;;;;;;;18.90;46.10;;;;;;491580;240;1199;-73
2021/05/24 07:52:46;;;;;;;;;;;18.90;46.10;;;;;;491579;240;1105;-73
2021/05/24 07:54:47;;;;;;;;;;;18.90;46.10;;;;;;491655;240;965;-73
2021/05/24 07:56:49;;;;;;;;;;;18.90;46.10;;;;;;491512;240;1105;-73
2021/05/24 07:58:50;;;;;;;;;;;18.90;46.10;;;;;;491488;240;1091;-73
2021/05/24 08:00:51;;;;;;;;;;;18.90;46.10;;;;;;491494;240;1191;-73
2021/05/24 08:02:52;;;;;;;;;;;18.90;46.10;;;;;;491455;240;2193;-73
2021/05/24 08:04:54;;;;;;;;;;;18.90;46.00;;;;;;491479;240;1046;-73
2021/05/24 08:06:55;;;;;;;;;;;18.90;46.10;;;;;;491427;240;1189;-73
2021/05/24 08:08:57;;;;;;;;;;;18.90;46.10;;;;;;491573;240;1009;-73
2021/05/24 08:10:58;;;;;;;;;;;18.90;46.10;;;;;;491590;240;1027;-73
2021/05/24 08:12:59;;;;;;;;;;;19.00;46.00;;;;;;491631;240;1285;-73
2021/05/24 08:15:01;;;;;;;;;;;19.00;46.00;;;;;;491580;240;1088;-73
2021/05/24 08:17:02;;;;;;;;;;;19.00;46.00;;;;;;491595;240;1458;-73
2021/05/24 08:19:03;;;;;;;;;;;19.00;46.00;;;;;;491593;240;1006;-73
2021/05/24 08:21:04;;;;;;;;;;;19.00;46.00;;;;;;491523;240;1193;-73
2021/05/24 08:23:06;;;;;;;;;;;19.00;46.00;;;;;;491520;240;2132;-73
2021/05/24 08:25:07;;;;;;;;;;;18.90;46.00;;;;;;491451;240;1087;-73
2021/05/24 08:27:10;;;;;;;;;;;18.90;46.00;;;;;;491412;240;1196;-73
2021/05/24 08:29:10;;;;;;;;;;;18.90;46.00;;;;;;491487;240;1467;-73
2021/05/24 08:31:11;;;;;;;;;;;18.90;46.00;;;;;;491446;240;1069;-73
2021/05/24 08:33:13;;;;;;;;;;;18.90;46.00;;;;;;491492;240;1193;-73
2021/05/24 08:35:14;;;;;;;;;;;19.00;46.00;;;;;;491525;240;981;-73
2021/05/24 08:37:15;;;;;;;;;;;19.00;45.90;;;;;;491591;240;1216;-73
2021/05/24 08:39:17;;;;;;;;;;;19.00;46.00;;;;;;491508;240;1050;-73
2021/05/24 08:41:18;;;;;;;;;;;19.00;45.90;;;;;;491614;240;1117;-73
2021/05/24 08:43:19;;;;;;;;;;;19.00;45.80;;;;;;491549;240;2188;-73
2021/05/24 08:45:20;;;;;;;;;;;19.00;45.80;;;;;;491555;240;1020;-73
2021/05/24 08:47:22;;;;;;;;;;;19.00;45.90;;;;;;491577;240;1072;-73
2021/05/24 08:49:23;;;;;;;;;;;19.00;45.90;;;;;;491495;240;1209;-73
2021/05/24 08:51:25;;;;;;;;;;;19.00;46.00;;;;;;491488;240;1170;-73
2021/05/24 08:53:27;;;;;;;;;;;19.00;46.10;;;;;;491459;240;1248;-73
2021/05/24 08:55:28;;;;;;;;;;;19.00;46.10;;;;;;491508;240;1245;-73
2021/05/24 08:57:29;;;;;;;;;;;19.00;46.10;;;;;;491442;240;1114;-73
2021/05/24 08:59:30;;;;;;;;;;;19.00;46.00;;;;;;491486;240;1017;-73
2021/05/24 09:01:31;;;;;;;;;;;19.00;46.10;;;;;;491505;240;985;-73
2021/05/24 09:03:33;;;;;;;;;;;19.00;46.10;;;;;;491596;240;2171;-73
2021/05/24 09:05:34;;;;;;;;;;;19.00;46.20;;;;;;491604;240;1056;-73
2021/05/24 09:07:35;;;;;;;;;;;18.90;46.20;;;;;;491585;240;1312;-73
2021/05/24 09:09:37;;;;;;;;;;;19.00;46.20;;;;;;491597;240;958;-73
2021/05/24 09:11:38;;;;;;;;;;;19.00;46.20;;;;;;491505;240;1026;-73
2021/05/24 09:13:39;;;;;;;;;;;19.00;46.30;;;;;;491599;240;1068;-73
2021/05/24 09:15:40;;;;;;;;;;;19.00;46.40;;;;;;491530;240;997;-73
2021/05/24 09:17:42;;;;;;;;;;;19.00;46.40;;;;;;491524;240;1083;-73
2021/05/24 09:19:43;;;;;;;;;;;19.00;46.30;;;;;;491413;240;1081;-73
2021/05/24 09:21:44;;;;;;;;;;;19.00;46.30;;;;;;491294;240;1098;-73
2021/05/24 09:23:46;;;;;;;;;;;19.00;46.20;;;;;;491459;240;2188;-73
2021/05/24 09:25:47;;;;;;;;;;;19.00;46.20;;;;;;491364;240;1220;-73
2021/05/24 09:27:49;;;;;;;;;;;19.10;46.20;;;;;;491381;240;1104;-73
2021/05/24 09:29:51;;;;;;;;;;;19.00;46.30;;;;;;491540;240;987;-73
2021/05/24 09:31:51;;;;;;;;;;;19.00;46.40;;;;;;491451;240;1421;-73
2021/05/24 09:33:53;;;;;;;;;;;19.00;46.50;;;;;;491494;240;1018;-73
2021/05/24 09:35:54;;;;;;;;;;;19.00;46.50;;;;;;491531;240;1291;-73
2021/05/24 09:37:55;;;;;;;;;;;19.00;46.50;;;;;;491474;240;1168;-73
2021/05/24 09:39:56;;;;;;;;;;;19.00;46.50;;;;;;491488;240;1077;-73
2021/05/24 09:42:00;;;;;;;;;;;19.00;46.50;;;;;;491520;240;1343;-73
2021/05/24 09:43:59;;;;;;;;;;;19.00;46.50;;;;;;491459;240;2188;-73
2021/05/24 09:46:00;;;;;;;;;;;19.00;46.60;;;;;;491388;240;1090;-73
2021/05/24 09:48:02;;;;;;;;;;;19.00;46.60;;;;;;491480;240;1001;-73
2021/05/24 09:50:03;;;;;;;;;;;19.00;46.70;;;;;;491484;240;1033;-73
2021/05/24 09:52:04;;;;;;;;;;;19.00;46.60;;;;;;491376;240;1185;-73
2021/05/24 09:54:06;;;;;;;;;;;19.00;46.60;;;;;;491435;240;933;-73
2021/05/24 09:56:07;;;;;;;;;;;19.00;46.50;;;;;;491533;240;1230;-73
2021/05/24 09:58:11;;;;;;;;;;;19.10;46.60;;;;;;491539;240;1022;-73
2021/05/24 10:00:09;;;;;;;;;;;19.10;46.40;;;;;;491568;240;1393;-73
2021/05/24 10:02:13;;;;;;;;;;;19.10;46.30;;;;;;491446;240;1197;-73
2021/05/24 10:04:12;;;;;;;;;;;19.00;46.40;;;;;;491513;240;2184;-73
2021/05/24 10:06:13;;;;;;;;;;;19.10;46.50;;;;;;491408;240;1168;-73
2021/05/24 10:08:14;;;;;;;;;;;19.00;46.50;;;;;;491567;240;1219;-73
2021/05/24 10:10:16;;;;;;;;;;;19.00;46.60;;;;;;491492;240;1073;-73
2021/05/24 10:12:17;;;;;;;;;;;19.00;46.50;;;;;;491460;240;1207;-73
2021/05/24 10:14:18;;;;;;;;;;;19.10;46.60;;;;;;491459;240;1090;-73
2021/05/24 10:16:20;;;;;;;;;;;19.10;46.50;;;;;;491374;240;1076;-74
2021/05/24 10:18:21;;;;;;;;;;;19.10;46.60;;;;;;491455;240;1024;-73
2021/05/24 10:20:22;;;;;;;;;;;19.10;46.70;;;;;;491448;240;1101;-73
2021/05/24 10:22:23;;;;;;;;;;;19.10;46.70;;;;;;491541;240;1156;-73
2021/05/24 10:24:25;;;;;;;;;;;19.10;46.70;;;;;;491564;240;2133;-73
2021/05/24 10:26:26;;;;;;;;;;;19.20;46.80;;;;;;491547;240;1083;-73
2021/05/24 10:28:27;;;;;;;;;;;19.10;46.80;;;;;;491585;240;1198;-73
2021/05/24 10:30:29;;;;;;;;;;;19.20;46.90;;;;;;491583;240;1037;-73
2021/05/24 10:32:30;;;;;;;;;;;19.20;46.90;;;;;;491515;240;1125;-73
2021/05/24 10:34:31;;;;;;;;;;;19.10;47.00;;;;;;491562;240;1275;-73
2021/05/24 10:36:32;;;;;;;;;;;19.10;47.00;;;;;;491529;240;1206;-73
2021/05/24 10:38:35;;;;;;;;;;;19.10;47.10;;;;;;491527;240;1160;-73
2021/05/24 10:40:35;;;;;;;;;;;19.10;47.20;;;;;;491466;240;1505;-73
2021/05/24 10:42:36;;;;;;;;;;;19.10;47.20;;;;;;491507;240;1103;-73
2021/05/24 10:44:38;;;;;;;;;;;19.10;47.10;;;;;;491385;240;2192;-73
2021/05/24 10:46:39;;;;;;;;;;;19.10;47.00;;;;;;491492;240;1459;-73
2021/05/24 10:48:40;;;;;;;;;;;19.10;47.00;;;;;;491481;240;1096;-73
2021/05/24 10:50:42;;;;;;;;;;;19.10;47.00;;;;;;491529;240;1135;-73
2021/05/24 10:52:43;;;;;;;;;;;19.10;47.10;;;;;;491516;240;1428;-73
2021/05/24 10:54:44;;;;;;;;;;;19.10;47.10;;;;;;491550;240;1026;-73
2021/05/24 10:56:45;;;;;;;;;;;19.10;47.20;;;;;;491543;240;1153;-73
2021/05/24 10:58:47;;;;;;;;;;;19.10;47.20;;;;;;491619;240;1009;-73
2021/05/24 11:00:48;;;;;;;;;;;19.10;47.30;;;;;;491569;240;1089;-73
2021/05/24 11:02:49;;;;;;;;;;;19.10;47.30;;;;;;491492;240;1136;-73
2021/05/24 11:04:52;;;;;;;;;;;19.10;47.30;;;;;;491535;240;2175;-73
2021/05/24 11:06:52;;;;;;;;;;;19.10;47.50;;;;;;491469;240;1332;-73
2021/05/24 11:08:53;;;;;;;;;;;19.10;47.60;;;;;;491424;240;1180;-73
2021/05/24 11:10:54;;;;;;;;;;;19.00;47.60;;;;;;491522;240;997;-73
2021/05/24 11:12:56;;;;;;;;;;;19.10;47.60;;;;;;491438;240;1293;-73
2021/05/24 11:14:57;;;;;;;;;;;19.10;47.60;;;;;;491542;240;967;-73
2021/05/24 11:16:59;;;;;;;;;;;19.10;47.60;;;;;;491584;240;994;-73
2021/05/24 11:19:00;;;;;;;;;;;19.10;47.60;;;;;;491579;240;1001;-73
2021/05/24 11:21:02;;;;;;;;;;;19.10;47.70;;;;;;491506;240;1075;-73
2021/05/24 11:23:05;;;;;;;;;;;19.10;47.80;;;;;;491516;240;1268;-73
2021/05/24 11:25:49;;;;;;;;;;;19.10;47.90;;;;;;491558;240;2136;-73
2021/05/24 11:27:05;;;;;;;;;;;19.00;48.00;;;;;;491691;240;1138;-73
2021/05/24 11:29:07;;;;;;;;;;;19.00;48.10;;;;;;491496;240;917;-73
2021/05/24 11:31:08;;;;;;;;;;;19.00;48.10;;;;;;491385;240;1062;-73
2021/05/24 11:33:09;;;;;;;;;;;19.10;48.10;;;;;;491490;240;1022;-73
2021/05/24 11:35:11;;;;;;;;;;;19.00;48.10;;;;;;491483;240;968;-73
2021/05/24 11:37:12;;;;;;;;;;;19.10;48.20;;;;;;491494;240;1019;-73
2021/05/24 11:39:15;;;;;;;;;;;19.10;48.20;;;;;;491427;240;1201;-73
2021/05/24 11:41:15;;;;;;;;;;;19.10;48.20;;;;;;491490;240;1344;-73
2021/05/24 11:43:17;;;;;;;;;;;19.10;48.20;;;;;;491589;240;1038;-73
2021/05/24 11:45:17;;;;;;;;;;;19.10;48.20;;;;;;491501;240;2180;-73
2021/05/24 11:47:19;;;;;;;;;;;19.10;48.20;;;;;;491577;240;1067;-73
2021/05/24 11:49:20;;;;;;;;;;;19.20;48.20;;;;;;491545;240;1319;-73
2021/05/24 11:51:21;;;;;;;;;;;19.20;48.10;;;;;;491545;240;1055;-73
2021/05/24 11:53:24;;;;;;;;;;;19.30;48.10;;;;;;491567;240;1154;-73
2021/05/24 11:55:24;;;;;;;;;;;19.40;48.00;;;;;;491511;240;1580;-72
2021/05/24 11:57:25;;;;;;;;;;;19.50;47.80;;;;;;491447;240;1111;-73